Terminal Aerodrome Forecast
Issued by NWS

Home | Current Version | Previous Version | Graphics & Text | Print | Product List | Glossary On
Versions: 1 2 3 4 5 6 7 8 9 10 11 12 13 14 15 16 17 18
000
FTUS43 KICT 282320
TAFSLN
TAF
KSLN 282320Z 2900/2924 02015KT P6SM OVC025
     FM290600 03015KT P6SM VCSH SCT008 OVC015
     FM290800 02015G22KT 4SM SHRA OVC007
     FM291400 02018G25KT 6SM -SHRA OVC012=

USA.gov is the U.S. government's official web portal to all federal, state and local government web resources and services.